Ginger III — WDG3349 — position and weather

sailwx.info

Track history (hours):
 
Tides and Currents Weather Stations Pressure Air Temp Water Temp Dewpoint Dewpoint Depression Visibility Wind Speed Wind Dir Waves Ship Positions

Ginger III

More information available from US FCC via Universal Licensing System and Coast Guard Vessel Documentation Center.

Last reported at 2014-Aug-09 23:17 UTC. Time now 2014-Sep-22 00:17 UTC.
Position N 41°21' W 071°58'.
Warning: this ship's position is 43 days out of date.

Length 14 m.

Type: Fishing. MMSI: 367525110.

Date/timePositionNaut miles runAvg speedWind from/ knotsBaromVisibWave heightAir tempDewpointWater temp
2014-Aug-09 23:17N 41°21' W 071°58'5 6.7
2014-Aug-09 22:33N 41°18' W 071°53'2424.1
2014-Aug-09 21:33N 40°56' W 071°41'2925.0
2014-Aug-09 20:24N 40°28' W 071°31'2021.4
2014-Aug-09 19:27N 40°08' W 071°23'7 8.0
2014-Aug-09 18:32N 40°02' W 071°19'5 5.0
2014-Aug-09 17:33N 39°58' W 071°23'5 4.9
2014-Aug-09 16:30N 39°57' W 071°29'6 4.3
2014-Aug-09 15:05N 40°02' W 071°33'4 7.2
2014-Aug-09 14:33N 40°05' W 071°35'8 7.7
2014-Aug-09 13:33N 40°13' W 071°36'1313.5
2014-Aug-09 12:33N 40°26' W 071°38'2525.1
2014-Aug-09 11:33N 40°51' W 071°43'2424.2
2014-Aug-09 10:33N 41°15' W 071°48'  
Track history (hours):
 
Tides and Currents Weather Stations Pressure Air Temp Water Temp Dewpoint Dewpoint Depression Visibility Wind Speed Wind Dir Waves Ship Positions

Ginger III

More information available from US FCC via Universal Licensing System and Coast Guard Vessel Documentation Center.

Last reported at 2014-Aug-09 23:17 UTC. Time now 2014-Sep-22 00:17 UTC.
Position N 41°21' W 071°58'.
Warning: this ship's position is 43 days out of date.

Length 14 m.

Type: Fishing. MMSI: 367525110.

Date/timePositionNaut miles runAvg speedWind from/ knotsBaromVisibWave heightAir tempDewpointWater temp
2014-Aug-09 23:17N 41°21' W 071°58'5 6.7
2014-Aug-09 22:33N 41°18' W 071°53'2424.1
2014-Aug-09 21:33N 40°56' W 071°41'2925.0
2014-Aug-09 20:24N 40°28' W 071°31'2021.4
2014-Aug-09 19:27N 40°08' W 071°23'7 8.0
2014-Aug-09 18:32N 40°02' W 071°19'5 5.0
2014-Aug-09 17:33N 39°58' W 071°23'5 4.9
2014-Aug-09 16:30N 39°57' W 071°29'6 4.3
2014-Aug-09 15:05N 40°02' W 071°33'4 7.2
2014-Aug-09 14:33N 40°05' W 071°35'8 7.7
2014-Aug-09 13:33N 40°13' W 071°36'1313.5
2014-Aug-09 12:33N 40°26' W 071°38'2525.1
2014-Aug-09 11:33N 40°51' W 071°43'2424.2
2014-Aug-09 10:33N 41°15' W 071°48'  

Dump ship's entire track history